Latest Weather Observations for Low Head

IDT60801

Issued at 8:02 am EST Sunday 28 August 2016 (issued every 30 minutes, with the page automatically refreshed every 10 minutes)

About weather observations | Map of weather stations | Latest weather observations for TAS | Other Formats
Station Details ID: 091293 Name: LOW HEAD Lat: -41.05 Lon: 146.79 Height: 3.0 m
Data from the previous 72 hours. | See also: Recent months at Low Head
Date/Time
EST
Temp
°C
App
Temp
°C
Dew
Point
°C
Rel
Hum
%
Delta-T
°C
Wind Press
QNH
hPa
Press
MSL
hPa
Rain since
9am
mm
Dir  Spd
km/h
Gust
km/h
Spd
kts
Gust
kts
28/08:00am 8.5 1.8 3.4 70 2.2 WSW 28 35 15 19 1015.8 1015.8 5.6
28/07:30am 8.9 2.3 4.3 73 2.0 WSW 28 33 15 18 1015.2 1015.2 5.6
28/07:00am 8.5 1.5 3.9 73 2.0 WSW 30 35 16 19 1014.5 1014.5 5.6
28/06:30am 9.0 1.7 4.6 74 1.9 WSW 32 37 17 20 1013.5 1013.5 5.6
28/06:00am 8.9 1.4 4.5 74 1.9 WSW 33 39 18 21 1012.8 1012.8 5.6
28/05:30am 9.3 2.1 4.9 74 2.0 WSW 32 37 17 20 1012.3 1012.3 5.6
28/05:00am 10.0 1.6 5.6 74 2.0 WSW 39 50 21 27 1011.5 1011.5 5.6
28/04:30am 10.7 2.2 6.8 77 1.8 WSW 41 46 22 25 1010.9 1010.9 5.6
28/04:00am 10.8 2.1 8.4 85 1.2 W 44 52 24 28 1010.2 1010.2 5.6
28/03:30am 10.8 1.4 8.9 88 0.9 WNW 48 57 26 31 1009.6 1009.6 5.6
28/03:00am 10.9 1.2 9.2 89 0.8 WNW 50 59 27 32 1009.4 1009.4 5.6
28/02:30am 11.1 2.3 9.4 89 0.9 WNW 46 57 25 31 1009.8 1009.8 5.6
28/02:00am 11.0 1.3 8.9 87 1.0 WNW 50 59 27 32 1009.9 1009.9 5.6
28/01:30am 11.6 0.8 9.3 86 1.2 WNW 56 69 30 37 1009.9 1009.9 5.6
28/01:00am 12.2 0.5 9.2 82 1.5 NW 61 83 33 45 1009.8 1009.8 5.0
28/12:46am 12.4 2.0 9.1 80 1.7 NW 54 72 29 39 1009.9 1009.9 4.8
28/12:30am 12.6 1.6 9.1 79 1.8 NW 57 74 31 40 1009.9 1009.9 4.8
28/12:14am 12.5 1.6 9.0 79 1.8 NW 56 74 30 40 1010.0 1010.0 4.8
28/12:00am 12.4 2.3 8.9 79 1.8 NNW 52 65 28 35 1010.1 1010.1 4.8
 
Date/Time
EST
Temp
°C
App
Temp
°C
Dew
Point
°C
Rel
Hum
%
Delta-T
°C
Wind Press
QNH
hPa
Press
MSL
hPa
Rain since
9am
mm
Dir  Spd
km/h
Gust
km/h
Spd
kts
Gust
kts
27/11:30pm 12.3 3.0 9.0 80 1.7 NW 48 59 26 32 1010.4 1010.4 4.8
27/11:00pm 12.3 2.9 8.8 79 1.7 NW 48 59 26 32 1010.8 1010.8 4.8
27/10:30pm 12.3 3.0 9.0 80 1.7 NW 48 61 26 33 1011.4 1011.4 4.8
27/10:00pm 12.2 2.5 8.9 80 1.6 NW 50 61 27 33 1011.8 1011.8 4.8
27/09:30pm 12.2 2.1 8.9 80 1.6 NW 52 65 28 35 1012.2 1012.2 4.8
27/09:00pm 12.1 1.7 9.1 82 1.5 NW 54 70 29 38 1012.4 1012.4 4.8
27/08:30pm 12.1 2.1 9.5 84 1.3 NW 52 67 28 36 1012.7 1012.7 4.8
27/08:00pm 11.9 2.3 9.5 85 1.2 NW 50 63 27 34 1012.7 1012.7 4.8
27/07:30pm 11.8 3.0 9.7 87 1.1 NW 46 57 25 31 1012.4 1012.4 4.8
27/07:00pm 11.7 2.2 9.8 88 1.0 NW 50 65 27 35 1012.4 1012.4 4.8
27/06:30pm 11.5 3.7 9.8 89 0.9 WNW 41 54 22 29 1012.6 1012.6 4.8
27/06:00pm 10.6 0.8 8.7 88 0.9 WNW 50 61 27 33 1012.9 1012.9 2.2
27/05:43pm 11.4 3.5 9.5 88 1.0 WNW 41 69 22 37 1012.9 1012.9 1.2
27/05:30pm 11.4 3.1 9.3 87 1.1 WNW 43 52 23 28 1012.7 1012.7 0.4
27/05:00pm 11.2 2.2 8.8 85 1.2 WNW 46 56 25 30 1012.7 1012.7 0.2
27/04:33pm 11.8 2.5 9.0 83 1.4 WNW 48 69 26 37 1012.6 1012.6 0.0
27/04:30pm 12.2 3.0 9.6 84 1.3 NW 48 57 26 31 1012.7 1012.7 0.0
27/04:00pm 12.1 3.6 9.3 83 1.4 NW 44 54 24 29 1012.6 1012.6 0.0
27/03:30pm 11.8 2.5 9.0 83 1.4 NW 48 57 26 31 1012.6 1012.6 0.0
27/03:00pm 12.6 4.1 9.2 80 1.7 NW 44 54 24 29 1012.9 1012.9 0.0
27/02:30pm 12.7 4.3 9.0 78 1.9 NW 43 54 23 29 1013.0 1013.0 0.0
27/02:00pm 13.0 4.7 9.3 78 1.9 WNW 43 52 23 28 1013.4 1013.4 0.0
27/01:30pm 13.0 4.7 9.3 78 1.9 NW 43 52 23 28 1013.7 1013.7 0.0
27/01:00pm 13.2 5.8 9.8 80 1.7 WNW 39 48 21 26 1014.0 1014.0 0.0
27/12:30pm 13.0 6.3 9.8 81 1.6 WNW 35 43 19 23 1014.4 1014.4 0.0
27/12:00pm 12.8 6.5 9.8 82 1.5 WNW 33 41 18 22 1014.5 1014.5 0.0
27/11:30am 12.7 4.9 9.9 83 1.4 WNW 41 48 22 26 1015.0 1015.0 0.0
27/11:00am 12.2 4.4 9.8 85 1.2 WNW 41 48 22 26 1015.4 1015.4 0.0
27/10:30am 11.5 4.3 9.2 86 1.2 WNW 37 43 20 23 1015.6 1015.6 0.0
27/10:00am 11.9 5.1 9.3 84 1.3 WNW 35 43 19 23 1015.8 1015.8 0.0
27/09:30am 12.0 5.7 9.6 85 1.2 WNW 33 41 18 22 1015.9 1015.9 0.0
27/09:00am 11.4 4.9 8.8 84 1.3 WNW 33 39 18 21 1015.9 1015.9 0.0
27/08:30am 11.4 5.1 9.0 85 1.2 WNW 32 37 17 20 1016.0 1016.0 0.0
27/08:00am 10.9 3.5 8.5 85 1.2 W 37 43 20 23 1015.9 1015.9 0.0
27/07:30am 10.7 4.1 8.5 86 1.1 W 33 39 18 21 1015.6 1015.6 0.0
27/07:00am 10.6 3.6 8.4 86 1.1 WNW 35 43 19 23 1015.8 1015.8 0.0
27/06:30am 10.5 3.8 8.3 86 1.1 WNW 33 41 18 22 1015.6 1015.6 0.0
27/06:00am 10.6 3.9 8.2 85 1.2 WNW 33 39 18 21 1015.6 1015.6 0.0
27/05:30am 10.6 4.2 8.4 86 1.1 WNW 32 37 17 20 1015.6 1015.6 0.0
27/05:00am 10.4 4.7 8.2 86 1.1 W 28 32 15 17 1015.5 1015.5 0.0
27/04:30am 10.4 3.9 8.2 86 1.1 WNW 32 37 17 20 1015.7 1015.7 0.0
27/04:00am 10.3 3.6 8.1 86 1.1 WNW 33 37 18 20 1015.5 1015.5 0.0
27/03:30am 10.4 3.3 8.2 86 1.1 WNW 35 39 19 21 1015.6 1015.6 0.0
27/03:00am 10.4 3.9 8.0 85 1.2 WNW 32 37 17 20 1015.5 1015.5 0.0
27/02:30am 10.3 3.7 7.9 85 1.2 W 32 37 17 20 1015.7 1015.7 0.0
27/02:00am 10.4 3.7 8.0 85 1.2 WNW 33 37 18 20 1016.0 1016.0 0.0
27/01:30am 10.4 2.9 8.0 85 1.2 WNW 37 43 20 23 1015.9 1015.9 0.0
27/01:00am 10.3 2.4 7.7 84 1.2 WNW 39 43 21 23 1016.1 1016.1 0.0
27/12:30am 10.4 2.1 7.8 84 1.3 WNW 41 46 22 25 1016.1 1016.1 0.0
27/12:00am 10.3 1.9 7.5 83 1.3 WNW 41 48 22 26 1016.2 1016.2 0.0
 
Date/Time
EST
Temp
°C
App
Temp
°C
Dew
Point
°C
Rel
Hum
%
Delta-T
°C
Wind Press
QNH
hPa
Press
MSL
hPa
Rain since
9am
mm
Dir  Spd
km/h
Gust
km/h
Spd
kts
Gust
kts
26/11:30pm 10.4 2.4 7.5 82 1.4 WNW 39 46 21 25 1016.5 1016.5 0.0
26/11:00pm 10.4 2.4 7.3 81 1.5 WNW 39 46 21 25 1016.3 1016.3 0.0
26/10:30pm 10.5 2.4 7.2 80 1.6 WNW 39 44 21 24 1016.4 1016.4 0.0
26/10:00pm 10.6 2.5 7.1 79 1.7 WNW 39 46 21 25 1016.5 1016.5 0.0
26/09:30pm 10.7 3.0 7.0 78 1.8 W 37 43 20 23 1016.6 1016.6 0.0
26/09:00pm 10.7 2.9 6.8 77 1.8 W 37 44 20 24 1016.6 1016.6 0.0
26/08:30pm 11.1 3.0 7.0 76 2.0 W 39 46 21 25 1016.4 1016.4 0.0
26/08:00pm 11.3 3.6 7.2 76 2.0 W 37 44 20 24 1016.2 1016.2 0.0
26/07:30pm 11.2 3.9 7.3 77 1.9 W 35 43 19 23 1015.9 1015.9 0.0
26/07:00pm 11.4 4.2 7.5 77 1.9 WNW 35 43 19 23 1015.8 1015.8 0.0
26/06:30pm 11.4 4.8 7.7 78 1.8 WNW 32 39 17 21 1015.6 1015.6 0.0
26/06:00pm 11.4 3.5 7.7 78 1.8 WNW 39 43 21 23 1015.2 1015.2 0.0
26/05:30pm 11.6 4.0 7.7 77 1.9 WNW 37 46 20 25 1015.1 1015.1 0.0
26/05:00pm 11.7 3.7 7.6 76 2.0 WNW 39 46 21 25 1014.9 1014.9 0.0
26/04:30pm 11.9 3.6 7.6 75 2.1 WNW 41 48 22 26 1014.8 1014.8 0.0
26/04:00pm 12.2 3.5 7.5 73 2.3 WNW 43 48 23 26 1014.6 1014.6 0.0
26/03:30pm 12.6 4.2 7.5 71 2.5 WNW 41 46 22 25 1014.6 1014.6 0.0
26/03:00pm 12.9 5.7 7.8 71 2.5 WNW 35 41 19 22 1014.7 1014.7 0.0
26/02:30pm 12.8 6.3 8.1 73 2.3 WNW 32 37 17 20 1014.8 1014.8 0.0
26/02:00pm 12.4 5.3 8.1 75 2.1 WNW 35 39 19 21 1015.0 1015.0 0.0
26/01:30pm 12.4 4.9 7.9 74 2.2 WNW 37 43 20 23 1015.2 1015.2 0.0
26/01:00pm 12.1 4.5 7.4 73 2.3 WNW 37 43 20 23 1015.4 1015.4 0.0
26/12:30pm 11.8 4.1 7.1 73 2.3 WNW 37 43 20 23 1015.9 1015.9 0.0
26/12:00pm 11.8 4.1 7.1 73 2.2 WNW 37 43 20 23 1016.2 1016.2 0.0
26/11:30am 11.4 4.4 6.9 74 2.1 WNW 33 41 18 22 1016.6 1016.6 0.0
26/11:00am 10.9 4.0 6.5 74 2.1 W 32 37 17 20 1016.7 1016.7 0.0
26/10:30am 10.5 3.3 5.9 73 2.1 W 33 39 18 21 1016.7 1016.7 0.0
26/10:00am 10.4 3.3 6.2 75 1.9 W 33 39 18 21 1016.6 1016.6 0.0
26/09:30am 10.0 2.0 5.8 75 1.9 W 37 44 20 24 1016.7 1016.7 0.0
26/09:00am 10.1 2.2 6.1 76 1.8 W 37 43 20 23 1016.6 1016.6 0.0
26/08:30am 9.9 1.6 6.1 77 1.8 W 39 44 21 24 1016.4 1016.4 0.0
26/08:00am 9.4 1.8 5.8 78 1.6 W 35 44 19 24 1016.3 1016.3 0.0
26/07:30am 9.2 2.1 5.4 77 1.7 W 32 43 17 23 1016.1 1016.1 0.0
26/07:00am 9.1 2.0 5.3 77 1.7 W 32 39 17 21 1015.7 1015.7 0.0
26/06:30am 9.5 2.3 6.0 79 1.6 W 33 39 18 21 1015.4 1015.4 0.0
26/06:00am 9.1 1.1 5.5 78 1.6 W 37 41 20 22 1015.2 1015.2 0.0
26/05:30am 8.5 3.6 4.9 78 1.6 WSW 20 24 11 13 1015.2 1015.2 0.0
26/05:00am 7.3 2.3 3.4 76 1.7 SW 19 28 10 15 1015.1 1015.1 0.0
26/04:30am 9.0 1.1 4.6 74 1.9 W 35 39 19 21 1014.8 1014.8 0.0
26/04:00am 8.6 2.8 4.4 75 1.8 W 24 30 13 16 1014.9 1014.9 0.0
26/03:30am 8.4 2.2 4.2 75 1.8 WSW 26 30 14 16 1014.7 1014.7 0.0
26/03:00am 8.5 2.7 4.3 75 1.8 WSW 24 30 13 16 1014.7 1014.7 0.0
26/02:30am 7.8 2.7 4.0 77 1.6 SW 20 24 11 13 1014.8 1014.8 0.0
26/02:00am 8.3 2.1 4.5 77 1.7 WSW 26 30 14 16 1014.8 1014.8 0.0
26/01:30am 8.0 2.1 4.0 76 1.7 WSW 24 30 13 16 1015.2 1015.2 0.0
26/01:00am 8.4 2.6 4.2 75 1.8 WSW 24 30 13 16 1015.0 1015.0 0.0
26/12:30am 8.2 1.9 3.9 74 1.9 WSW 26 30 14 16 1015.0 1015.0 0.0
26/12:00am 8.7 1.7 4.3 74 1.9 W 30 37 16 20 1014.9 1014.9 0.0
 
Date/Time
EST
Temp
°C
App
Temp
°C
Dew
Point
°C
Rel
Hum
%
Delta-T
°C
Wind Press
QNH
hPa
Press
MSL
hPa
Rain since
9am
mm
Dir  Spd
km/h
Gust
km/h
Spd
kts
Gust
kts
25/11:30pm 8.9 2.7 4.5 74 1.9 WSW 26 32 14 17 1014.8 1014.8 0.0
25/11:00pm 9.0 2.9 5.0 76 1.8 WSW 26 30 14 16 1014.9 1014.9 0.0
25/10:30pm 9.5 4.9 5.5 76 1.8 W 19 24 10 13 1014.9 1014.9 0.0
25/10:00pm 8.6 5.3 4.6 76 1.8 SSW 11 13 6 7 1014.9 1014.9 0.0
25/09:30pm 9.1 5.6 5.3 77 1.7 SSW 13 19 7 10 1014.6 1014.6 0.0
25/09:00pm 9.8 5.2 6.3 79 1.6 WSW 20 26 11 14 1014.5 1014.5 0.0
25/08:30pm 9.4 6.8 5.9 79 1.6 SSW 9 11 5 6 1014.1 1014.1 0.0
25/08:00pm 9.7 7.5 6.1 78 1.7 S 7 11 4 6 1013.7 1013.7 0.0
25/07:30pm 10.0 7.8 6.2 77 1.8 S 7 11 4 6 1013.4 1013.4 0.0
25/07:00pm 11.5 8.4 7.4 76 2.0 WSW 13 19 7 10 1013.1 1013.1 0.0
25/06:30pm 11.7 7.5 7.6 76 2.0 NNW 19 22 10 12 1013.0 1013.0 0.0
25/06:00pm 11.5 7.2 7.0 74 2.1 NNW 19 24 10 13 1012.7 1012.7 0.0
25/05:30pm 11.6 8.0 6.9 73 2.2 N 15 17 8 9 1012.4 1012.4 0.0
25/05:00pm 11.9 8.2 6.4 69 2.6 NW 15 17 8 9 1012.3 1012.3 0.0
25/04:30pm 12.3 8.2 6.1 66 2.9 NW 17 20 9 11 1012.2 1012.2 0.0
25/04:00pm 12.5 8.0 5.9 64 3.1 WNW 19 20 10 11 1012.1 1012.1 0.0
25/03:30pm 12.7 8.1 5.4 61 3.4 NW 19 20 10 11 1012.1 1012.1 0.0
25/03:00pm 12.9 8.0 4.3 56 3.9 NW 19 20 10 11 1012.0 1012.0 0.0
25/02:30pm 12.9 8.4 4.3 56 3.9 WNW 17 20 9 11 1011.8 1011.8 0.0
25/02:00pm 12.8 8.4 4.5 57 3.8 NW 17 20 9 11 1011.8 1011.8 0.0
25/01:30pm 12.6 7.7 4.3 57 3.8 NW 19 20 10 11 1011.6 1011.6 0.0
25/01:00pm 12.5 8.4 4.2 57 3.8 WNW 15 17 8 9 1011.7 1011.7 0.0
25/12:30pm 12.2 8.2 4.9 61 3.3 NW 15 17 8 9 1011.8 1011.8 0.0
25/12:00pm 10.7 8.1 4.4 65 2.8 SSW 7 9 4 5 1011.9 1011.9 0.0
25/11:30am 10.3 6.7 4.9 69 2.4 SSW 13 17 7 9 1011.9 1011.9 0.0
25/11:00am 10.0 6.0 5.0 71 2.3 S 15 19 8 10 1012.0 1012.0 0.0
25/10:30am 9.4 5.2 4.0 69 2.4 SSE 15 19 8 10 1012.0 1012.0 0.0
25/10:00am 8.5 3.9 3.8 72 2.0 SE 17 22 9 12 1011.9 1011.9 0.0
25/09:30am 7.5 2.4 3.9 78 1.5 S 20 24 11 13 1011.9 1011.9 0.0
25/09:00am 6.7 2.1 3.7 81 1.3 S 17 20 9 11 1011.6 1011.6 0.0
25/08:30am 5.7 0.4 3.0 83 1.1 S 20 22 11 12 1011.4 1011.4 0.0

Other Formats:

Comma delimited format used in spreadsheet applications
http://www.bom.gov.au/fwo/IDT60801/IDT60801.95964.axf

JavaScript Object Notation format (JSON) in row-major order
http://www.bom.gov.au/fwo/IDT60801/IDT60801.95964.json